Canyon, California
Current Conditions -  °F | °C
As of 12:53 AM on Friday 28 Nov 2014 (Local Time) from KOAK Reporting Station
Light Fog Light Fog  
Wind Chill: 46°   Ceiling: Unl
Heat Index: 46°   Visibility: 2mi
Dew Point: 43°   Wind: 3mph
Humidity: 89%   Direction: 60°ENE
Pressure: 30.06"   Gusts: NA
Location:  37.83°N, 122.19°W
Report Text: KOAK 280853Z 06003KT 2SM MIFG BR FEW008 08/06 A3006 RMK AO2 SLP178 T00780061 58004 $
Loading
Personal Weather Stations






























Interactive Weather Map New forecast layout! Learn more

10-Day Weather Forecast

Advertisements
Track Severe Weather on mobile